Time;durP1;ratioP1;P1;durP2;ratioP2;P2;SDS_P1;SDS_P2;PMS_P1;PMS_P2;Temp;Humidity;BMP_temperature;BMP_pressure;BME280_temperature;BME280_humidity;BME280_pressure;Samples;Min_cycle;Max_cycle;Signal;HPM_P1;HPM_P2
2021/01/09 00:01:26;;;;;;;19.27;9.85;;;;;;;1.98;65.81;100342.05;1729429;80;21517;-55
2021/01/09 00:03:54;;;;;;;13.85;9.28;;;;;;;2.01;65.84;100345.81;1757112;79;21525;-56
2021/01/09 00:06:21;;;;;;;17.50;9.10;;;;;;;1.98;65.94;100343.81;1762215;79;21219;-56
2021/01/09 00:08:49;;;;;;;20.72;11.68;;;;;;;1.99;65.95;100345.52;1767403;79;21671;-56
2021/01/09 00:11:17;;;;;;;17.23;10.90;;;;;;;2.01;66.03;100343.22;1734847;79;21195;-55
2021/01/09 00:13:45;;;;;;;16.48;8.78;;;;;;;2.10;65.97;100343.72;1764076;79;21152;-56
2021/01/09 00:16:13;;;;;;;17.40;9.88;;;;;;;2.14;65.87;100346.11;1760959;79;21596;-55
2021/01/09 00:18:40;;;;;;;21.77;9.35;;;;;;;2.18;65.79;100342.92;1793142;78;21587;-56
2021/01/09 00:21:08;;;;;;;15.20;7.78;;;;;;;2.19;65.76;100345.91;1796391;79;21197;-56
2021/01/09 00:23:36;;;;;;;17.85;9.40;;;;;;;2.19;65.75;100348.51;1764464;79;21184;-56
2021/01/09 00:26:04;;;;;;;19.07;10.28;;;;;;;2.16;65.68;100346.88;1793846;78;21108;-56
2021/01/09 00:28:32;;;;;;;15.75;9.00;;;;;;;2.16;65.75;100344.75;1760787;79;21110;-55
2021/01/09 00:31:00;;;;;;;16.10;9.20;;;;;;;2.15;65.81;100346.52;1799833;79;21651;-55
2021/01/09 00:33:27;;;;;;;16.82;10.10;;;;;;;2.16;65.84;100346.88;1737088;82;21487;-55
2021/01/09 00:35:58;;;;;;;17.52;9.83;;;;;;;2.15;65.91;100349.11;1735085;80;21194;-55
2021/01/09 00:38:25;;;;;;;18.55;9.40;;;;;;;2.15;65.86;100350.41;1735506;80;21200;-56
2021/01/09 00:40:53;;;;;;;17.95;10.70;;;;;;;2.11;66.01;100346.25;1730315;82;21537;-55
2021/01/09 00:43:21;;;;;;;17.32;8.90;;;;;;;2.13;66.03;100352.67;1797216;79;21318;-56
2021/01/09 00:45:49;;;;;;;18.62;10.98;;;;;;;2.11;66.09;100350.61;1729727;82;21580;-56
2021/01/09 00:48:17;;;;;;;15.95;9.53;;;;;;;2.09;66.16;100350.67;1802150;78;21201;-56
2021/01/09 00:50:44;;;;;;;19.52;10.60;;;;;;;2.07;66.28;100351.20;1805491;78;21434;-55
2021/01/09 00:53:11;;;;;;;17.50;9.10;;;;;;;2.10;66.32;100350.20;1811577;78;21101;-56
2021/01/09 00:55:39;;;;;;;15.65;9.58;;;;;;;2.11;66.42;100348.84;1719363;80;21538;-55
2021/01/09 00:58:07;;;;;;;14.85;9.38;;;;;;;2.14;66.28;100343.98;1696075;82;21224;-55
2021/01/09 01:00:35;;;;;;;17.15;9.70;;;;;;;2.14;66.33;100338.79;1765644;80;21185;-55
2021/01/09 01:03:05;;;;;;;15.98;9.83;;;;;;;2.15;66.29;100336.56;1706722;82;21161;-55
2021/01/09 01:05:32;;;;;;;16.12;10.35;;;;;;;2.14;66.37;100337.49;1773536;80;21639;-54
2021/01/09 01:08:00;;;;;;;20.55;10.35;;;;;;;2.13;66.39;100333.20;1734901;80;21282;-54
2021/01/09 01:10:28;;;;;;;20.77;10.48;;;;;;;2.12;66.49;100331.50;1795937;79;21183;-56
2021/01/09 01:12:55;;;;;;;14.93;9.75;;;;;;;2.15;66.48;100317.95;1795056;78;21108;-55
2021/01/09 01:15:23;;;;;;;16.82;9.60;;;;;;;2.16;66.49;100318.79;1792684;79;21180;-56
2021/01/09 01:17:51;;;;;;;15.20;9.93;;;;;;;2.17;66.47;100321.75;1773919;79;21145;-55
2021/01/09 01:20:18;;;;;;;19.95;10.43;;;;;;;2.14;66.47;100324.52;1765706;79;21790;-55
2021/01/09 01:22:47;;;;;;;17.55;10.10;;;;;;;2.16;66.47;100318.32;1733150;81;21181;-55
2021/01/09 01:25:16;;;;;;;15.68;10.08;;;;;;;2.27;66.36;100320.44;1813072;79;21117;-55
2021/01/09 01:27:43;;;;;;;19.02;10.45;;;;;;;2.38;66.19;100319.92;1777663;79;21167;-56
2021/01/09 01:30:12;;;;;;;16.75;10.00;;;;;;;2.43;66.13;100318.42;1794143;77;21207;-55
2021/01/09 01:32:39;;;;;;;15.18;9.50;;;;;;;2.41;66.10;100318.02;1774686;79;21128;-55
2021/01/09 01:35:10;;;;;;;20.57;11.38;;;;;;;2.43;66.12;100323.14;1742929;80;21276;-55
2021/01/09 01:37:37;;;;;;;17.85;10.00;;;;;;;2.41;66.07;100325.81;1778203;77;21140;-55
2021/01/09 01:40:06;;;;;;;16.87;9.80;;;;;;;2.35;66.17;100320.89;1799307;78;21155;-55
2021/01/09 01:42:34;;;;;;;19.45;10.35;;;;;;;2.29;66.31;100326.40;1777660;79;22466;-56
2021/01/09 01:45:02;;;;;;;18.00;10.00;;;;;;;2.24;66.46;100323.17;1732860;82;21965;-55
2021/01/09 01:47:30;;;;;;;17.87;11.08;;;;;;;2.24;66.57;100317.98;1729724;81;21573;-55
2021/01/09 01:49:58;;;;;;;18.00;10.72;;;;;;;2.25;66.54;100323.54;1728149;80;21179;-55
2021/01/09 01:52:25;;;;;;;19.32;11.53;;;;;;;2.24;66.61;100316.69;1746855;80;21200;-55
2021/01/09 01:54:53;;;;;;;18.35;9.25;;;;;;;2.24;66.69;100319.28;1739892;81;21132;-55
2021/01/09 01:57:20;;;;;;;19.50;10.72;;;;;;;2.27;66.64;100315.68;1806360;77;21943;-55
2021/01/09 01:59:47;;;;;;;17.40;10.38;;;;;;;2.26;66.72;100314.85;1801127;78;21151;-55
2021/01/09 02:02:16;;;;;;;19.42;10.35;;;;;;;2.28;66.69;100313.02;1778947;79;21152;-55
2021/01/09 02:04:47;;;;;;;20.02;10.93;;;;;;;2.28;66.66;100313.02;1729681;81;21159;-55
2021/01/09 02:07:17;;;;;;;21.97;12.37;;;;;;;2.27;66.69;100310.48;1808006;77;21141;-55
2021/01/09 02:09:47;;;;;;;14.68;9.53;;;;;;;2.23;66.77;100307.20;1790487;78;21191;-55
2021/01/09 02:12:19;;;;;;;17.82;10.58;;;;;;;2.27;66.77;100313.09;1792397;77;21165;-55
2021/01/09 02:14:52;;;;;;;19.50;10.58;;;;;;;2.33;66.62;100307.16;1767996;77;21172;-55
2021/01/09 02:17:20;;;;;;;20.12;10.45;;;;;;;2.36;66.60;100304.41;1772171;79;21160;-56
2021/01/09 02:19:47;;;;;;;19.25;11.10;;;;;;;2.34;66.78;100302.35;1735947;80;21157;-55
2021/01/09 02:22:16;;;;;;;16.37;10.18;;;;;;;2.34;66.80;100301.52;1773665;79;21638;-55
2021/01/09 02:24:46;;;;;;;18.23;10.80;;;;;;;2.33;66.89;100303.72;1773292;79;21192;-55
2021/01/09 02:27:14;;;;;;;22.80;12.20;;;;;;;2.32;66.87;100296.83;1768768;79;21159;-55
2021/01/09 02:29:59;;;;;;;20.17;11.05;;;;;;;2.30;66.90;100298.20;1763779;79;21160;-55
2021/01/09 02:32:29;;;;;;;19.37;11.43;;;;;;;2.31;66.95;100297.30;1729268;81;21188;-55
2021/01/09 02:35:00;;;;;;;20.92;10.93;;;;;;;2.34;66.85;100291.97;1683709;82;21350;-55
2021/01/09 02:37:28;;;;;;;17.70;9.90;;;;;;;2.35;66.88;100292.33;1762274;79;21195;-55
2021/01/09 02:39:56;;;;;;;22.58;12.60;;;;;;;2.36;66.85;100294.49;1759536;79;21634;-55
2021/01/09 02:42:23;;;;;;;19.00;11.68;;;;;;;2.32;66.94;100288.61;1780027;79;21160;-56
2021/01/09 02:44:52;;;;;;;19.62;11.93;;;;;;;2.35;66.91;100288.44;1766809;79;21164;-55
2021/01/09 02:47:19;;;;;;;19.55;11.22;;;;;;;2.37;66.94;100290.97;1731569;79;21988;-55
2021/01/09 02:49:47;;;;;;;16.85;10.60;;;;;;;2.38;66.87;100292.19;1740222;79;21522;-55
2021/01/09 02:52:14;;;;;;;25.25;12.28;;;;;;;2.35;66.96;100288.91;1773350;79;21105;-55
2021/01/09 02:54:42;;;;;;;20.43;12.47;;;;;;;2.36;67.00;100290.12;1774665;79;21460;-55
2021/01/09 02:57:09;;;;;;;19.50;11.22;;;;;;;2.35;66.94;100284.55;1778794;79;21156;-55
2021/01/09 02:59:37;;;;;;;19.32;12.05;;;;;;;2.41;66.91;100289.45;1768123;79;21259;-55
2021/01/09 03:02:04;;;;;;;19.57;11.30;;;;;;;2.49;66.72;100288.23;1745263;79;21659;-55
2021/01/09 03:04:32;;;;;;;20.80;12.78;;;;;;;2.55;66.62;100284.89;1745327;80;21135;-55
2021/01/09 03:06:59;;;;;;;18.32;10.58;;;;;;;2.59;66.57;100283.84;1768601;79;21196;-55
2021/01/09 03:09:27;;;;;;;17.07;10.18;;;;;;;2.63;66.64;100285.00;1770449;80;21560;-55
2021/01/09 03:11:55;;;;;;;19.55;12.00;;;;;;;2.66;66.54;100286.98;1777791;79;21428;-56
2021/01/09 03:14:22;;;;;;;16.82;10.23;;;;;;;2.65;66.41;100288.36;1757187;79;21199;-56
2021/01/09 03:16:50;;;;;;;19.90;11.85;;;;;;;2.57;66.49;100283.08;1768666;79;21156;-55
2021/01/09 03:19:17;;;;;;;19.50;12.23;;;;;;;2.53;66.56;100285.89;1783792;78;21456;-55
2021/01/09 03:21:45;;;;;;;20.80;12.13;;;;;;;2.45;66.66;100288.84;1711059;82;21145;-55
2021/01/09 03:24:12;;;;;;;26.00;12.40;;;;;;;2.41;66.76;100287.33;1754022;79;22060;-55
2021/01/09 03:26:39;;;;;;;19.87;12.35;;;;;;;2.41;66.83;100287.33;1764977;78;21162;-55
2021/01/09 03:29:07;;;;;;;19.95;12.70;;;;;;;2.38;66.92;100289.59;1798479;78;21161;-55
2021/01/09 03:31:35;;;;;;;22.27;13.60;;;;;;;2.34;67.03;100289.84;1753457;78;21129;-55
2021/01/09 03:34:03;;;;;;;22.25;11.83;;;;;;;2.33;67.18;100288.14;1684046;83;21173;-55
2021/01/09 03:36:31;;;;;;;16.12;11.73;;;;;;;2.36;67.26;100287.53;1768955;79;21259;-56
2021/01/09 03:38:59;;;;;;;20.60;13.18;;;;;;;2.37;67.24;100284.47;1787924;78;22060;-55
2021/01/09 03:41:26;;;;;;;18.98;12.15;;;;;;;2.34;67.27;100285.47;1786341;78;21113;-55
2021/01/09 03:43:54;;;;;;;22.35;12.43;;;;;;;2.38;67.33;100288.77;1764911;79;21502;-55
2021/01/09 03:46:21;;;;;;;18.85;11.35;;;;;;;2.52;67.11;100295.45;1798746;78;21141;-55
2021/01/09 03:48:49;;;;;;;19.85;12.10;;;;;;;2.61;66.75;100296.77;1788438;78;21205;-55
2021/01/09 03:51:17;;;;;;;20.02;11.35;;;;;;;2.60;66.78;100294.59;1712738;82;21592;-55
2021/01/09 03:53:45;;;;;;;18.37;11.38;;;;;;;2.57;66.85;100286.98;1788102;78;21145;-56
2021/01/09 03:56:12;;;;;;;19.35;12.75;;;;;;;2.52;66.91;100292.86;1696017;82;21208;-56
2021/01/09 03:58:41;;;;;;;19.87;12.53;;;;;;;2.46;67.07;100290.54;1762437;79;21141;-56
2021/01/09 04:01:08;;;;;;;21.40;13.03;;;;;;;2.41;67.18;100289.45;1698482;82;21908;-56
2021/01/09 04:03:37;;;;;;;20.10;12.28;;;;;;;2.38;67.35;100296.09;1791589;78;21133;-55
2021/01/09 04:06:05;;;;;;;21.23;12.35;;;;;;;2.37;67.39;100297.02;1684383;83;21188;-55
2021/01/09 04:08:33;;;;;;;21.30;12.00;;;;;;;2.39;67.39;100302.97;1785357;79;21122;-56
2021/01/09 04:11:00;;;;;;;25.08;12.70;;;;;;;2.36;67.45;100297.92;1783041;78;21597;-56
2021/01/09 04:13:28;;;;;;;21.95;11.90;;;;;;;2.34;67.47;100296.33;1782888;78;21418;-56
2021/01/09 04:15:56;;;;;;;22.13;11.70;;;;;;;2.32;67.63;100302.89;1788770;78;21724;-56
2021/01/09 04:18:25;;;;;;;21.57;11.70;;;;;;;2.35;67.65;100305.31;1761287;79;21180;-56
2021/01/09 04:20:55;;;;;;;20.15;12.00;;;;;;;2.32;67.61;100301.59;1732534;81;21127;-55
2021/01/09 04:23:22;;;;;;;21.65;11.85;;;;;;;2.36;67.60;100308.31;1737774;81;21223;-56
2021/01/09 04:25:49;;;;;;;18.67;11.65;;;;;;;2.45;67.52;100309.62;1773097;79;22130;-56
2021/01/09 04:28:17;;;;;;;17.10;10.68;;;;;;;2.55;67.38;100309.56;1804168;77;21227;-56
2021/01/09 04:30:45;;;;;;;20.80;11.08;;;;;;;2.62;67.21;100312.71;1708442;82;21183;-55
2021/01/09 04:33:12;;;;;;;21.30;13.70;;;;;;;2.61;67.24;100318.84;1768340;79;21644;-56
2021/01/09 04:35:40;;;;;;;25.35;13.93;;;;;;;2.58;67.24;100320.28;1754819;79;21131;-56
2021/01/09 04:38:09;;;;;;;19.70;11.18;;;;;;;2.57;67.31;100317.28;1790890;77;21219;-56
2021/01/09 04:40:37;;;;;;;24.95;13.00;;;;;;;2.52;67.29;100316.23;1767897;79;21180;-56
2021/01/09 04:43:06;;;;;;;21.17;12.37;;;;;;;2.49;67.42;100309.02;1796870;77;21219;-56
2021/01/09 04:45:34;;;;;;;20.15;12.05;;;;;;;2.45;67.57;100306.20;1810957;78;21132;-56
2021/01/09 04:48:01;;;;;;;23.20;12.75;;;;;;;2.42;67.66;100307.17;1805921;77;21673;-56
2021/01/09 04:50:29;;;;;;;21.62;12.03;;;;;;;2.41;67.70;100314.59;1724894;80;22616;-56
2021/01/09 04:52:56;;;;;;;21.90;13.08;;;;;;;2.40;67.71;100312.89;1745214;79;21200;-56
2021/01/09 04:55:24;;;;;;;22.30;12.40;;;;;;;2.36;67.79;100317.40;1775504;78;21671;-56
2021/01/09 04:57:51;;;;;;;25.00;12.20;;;;;;;2.35;67.86;100317.47;1773745;78;21180;-57
2021/01/09 05:00:20;;;;;;;21.85;12.37;;;;;;;2.44;67.77;100323.98;1709339;81;21178;-57
2021/01/09 05:02:48;;;;;;;20.37;11.97;;;;;;;2.53;67.67;100315.77;1775650;77;21164;-57
2021/01/09 05:05:15;;;;;;;19.85;12.23;;;;;;;2.62;67.56;100312.71;1778605;79;21220;-56
2021/01/09 05:07:44;;;;;;;18.90;12.15;;;;;;;2.67;67.46;100316.39;1805520;77;21152;-56
2021/01/09 05:10:13;;;;;;;24.77;13.38;;;;;;;2.66;67.36;100323.36;1732190;81;21207;-57
2021/01/09 05:12:41;;;;;;;19.25;11.88;;;;;;;2.63;67.39;100331.30;1773687;79;21167;-56
2021/01/09 05:15:10;;;;;;;20.85;12.18;;;;;;;2.56;67.49;100333.81;1772317;79;21742;-56
2021/01/09 05:17:39;;;;;;;23.18;13.08;;;;;;;2.53;67.65;100335.25;1737584;80;21669;-56
2021/01/09 05:20:29;;;;;;;24.00;14.00;;;;;;;2.52;67.62;100339.61;1765848;79;21566;-56
2021/01/09 05:23:01;;;;;;;20.62;12.78;;;;;;;2.50;67.66;100336.22;1706026;82;21176;-55
2021/01/09 05:25:28;;;;;;;21.35;12.55;;;;;;;2.47;67.64;100336.83;1694361;82;21117;-56
2021/01/09 05:27:58;;;;;;;20.20;13.28;;;;;;;2.48;67.64;100335.92;1689975;82;21443;-56
2021/01/09 05:30:26;;;;;;;20.82;12.65;;;;;;;2.57;67.45;100339.37;1697341;83;21224;-55
2021/01/09 05:32:53;;;;;;;19.80;14.10;;;;;;;2.62;67.31;100341.75;1679211;83;21129;-56
2021/01/09 05:35:20;;;;;;;18.98;11.78;;;;;;;2.63;67.27;100340.85;1691770;83;21710;-55
2021/01/09 05:37:48;;;;;;;23.87;13.13;;;;;;;2.61;67.61;100348.72;1689323;83;21156;-55
2021/01/09 05:40:17;;;;;;;21.85;14.03;;;;;;;2.61;67.64;100348.72;1668035;83;21535;-56
2021/01/09 05:42:45;;;;;;;20.77;12.28;;;;;;;2.61;67.45;100351.31;1698843;83;21225;-55
2021/01/09 05:45:14;;;;;;;19.12;12.60;;;;;;;2.55;67.54;100352.89;1690823;83;21121;-56
2021/01/09 05:47:41;;;;;;;21.35;12.25;;;;;;;2.52;67.59;100356.93;1695968;82;21153;-55
2021/01/09 05:50:10;;;;;;;20.77;12.90;;;;;;;2.49;67.65;100363.13;1658800;82;21578;-55
2021/01/09 05:52:39;;;;;;;22.17;13.43;;;;;;;2.52;67.67;100364.72;1658987;83;22012;-55
2021/01/09 05:55:08;;;;;;;23.95;12.47;;;;;;;2.52;67.67;100369.48;1694097;83;21651;-59
2021/01/09 05:57:36;;;;;;;22.70;13.03;;;;;;;2.55;67.64;100368.48;1691959;83;21192;-55
2021/01/09 06:13:26;;;;;;;19.48;11.73;;;;;;;2.65;67.59;100380.12;1776110;78;22526;-56
2021/01/09 06:15:53;;;;;;;20.23;10.90;;;;;;;2.56;67.70;100388.36;1785704;80;21117;-56
2021/01/09 06:18:21;;;;;;;19.32;11.60;;;;;;;2.53;67.82;100394.52;1746430;80;21445;-56
2021/01/09 06:20:51;;;;;;;25.27;13.68;;;;;;;2.52;67.86;100390.70;1788887;80;21225;-55
2021/01/09 06:23:18;;;;;;;20.90;13.62;;;;;;;2.48;67.92;100391.77;1782070;80;21209;-56
2021/01/09 06:36:26;;;;;;;22.67;13.10;;;;;;;2.25;68.85;100392.34;1783400;78;22317;-56
2021/01/09 06:38:56;;;;;;;22.70;13.38;;;;;;;2.19;69.05;100401.27;1721228;81;21237;-56
2021/01/09 06:41:25;;;;;;;21.60;13.35;;;;;;;2.19;69.13;100403.02;1750148;81;21268;-56
2021/01/09 06:43:54;;;;;;;28.10;13.30;;;;;;;2.25;69.01;100405.33;1752386;80;21113;-55
2021/01/09 06:46:32;;;;;;;27.93;16.83;;;;;;;2.39;68.83;100406.02;1851801;74;27718;-56
2021/01/09 06:49:01;;;;;;;24.95;12.68;;;;;;;2.61;68.41;100401.97;1844719;75;21579;-56
2021/01/09 06:51:39;;;;;;;24.23;13.78;;;;;;;2.84;67.75;100401.33;1840693;75;21644;-55
2021/01/09 06:54:25;;;;;;;22.20;12.00;;;;;;;2.82;67.68;100407.07;1817999;77;21191;-55
2021/01/09 06:57:13;;;;;;;23.65;12.33;;;;;;;2.77;67.73;100408.58;1849688;75;21190;-55
2021/01/09 06:59:42;;;;;;;20.70;11.57;;;;;;;2.68;67.78;100412.45;1821181;77;21198;-55
2021/01/09 07:03:44;;;;;;;24.65;13.83;;;;;;;2.61;68.08;100407.17;1886982;74;22623;-59
2021/01/09 07:06:12;;;;;;;20.52;12.60;;;;;;;2.67;67.91;100419.02;1864968;75;21471;-59
2021/01/09 07:08:40;;;;;;;23.07;13.13;;;;;;;2.74;67.82;100420.41;1813366;78;21145;-59
2021/01/09 07:11:08;;;;;;;23.98;13.62;;;;;;;2.79;67.68;100415.84;1758032;79;21295;-59
2021/01/09 07:13:36;;;;;;;21.35;12.70;;;;;;;2.78;67.63;100420.20;1703566;78;21302;-67
2021/01/09 07:16:14;;;;;;;22.98;13.18;;;;;;;2.77;67.69;100422.87;1783190;78;21212;-62
2021/01/09 07:18:50;;;;;;;20.85;12.20;;;;;;;2.76;67.62;100424.63;1786616;78;21576;-63
2021/01/09 07:21:21;;;;;;;24.70;12.28;;;;;;;2.70;67.72;100417.11;1780677;78;21757;-63
2021/01/09 07:23:52;;;;;;;24.37;13.72;;;;;;;2.61;67.90;100424.05;1767746;78;21561;-64
2021/01/09 07:26:20;;;;;;;22.70;12.80;;;;;;;2.55;68.11;100425.16;1776678;78;21163;-61
2021/01/09 07:28:48;;;;;;;18.70;12.23;;;;;;;2.60;67.94;100430.16;1782999;78;21163;-62
2021/01/09 07:31:15;;;;;;;19.27;11.55;;;;;;;2.68;67.84;100429.34;1798908;78;21282;-64
2021/01/09 07:33:45;;;;;;;22.50;11.22;;;;;;;2.73;67.73;100426.53;1808461;77;21179;-63
2021/01/09 07:36:13;;;;;;;21.05;12.40;;;;;;;2.74;67.83;100428.20;1771649;78;21566;-63
2021/01/09 07:38:47;;;;;;;18.42;12.10;;;;;;;2.75;67.86;100432.03;1781940;78;21221;-66
2021/01/09 07:41:37;;;;;;;22.42;13.00;;;;;;;2.72;67.78;100426.14;1773882;78;21190;-62
2021/01/09 07:44:12;;;;;;;20.80;12.07;;;;;;;2.72;67.91;100433.50;1806388;77;21601;-62
2021/01/09 07:46:56;;;;;;;25.08;13.60;;;;;;;2.72;67.77;100434.80;1762982;78;21247;-61
2021/01/09 07:49:29;;;;;;;20.88;13.53;;;;;;;2.67;67.71;100428.95;1782863;78;21278;-63
2021/01/09 07:52:07;;;;;;;25.90;13.05;;;;;;;2.73;67.71;100433.87;1772119;78;21239;-63
2021/01/09 07:54:43;;;;;;;19.45;12.60;;;;;;;2.87;67.44;100434.98;1760576;78;21184;-62
2021/01/09 07:57:25;;;;;;;24.75;14.43;;;;;;;2.97;67.14;100440.13;1772003;78;21174;-64
2021/01/09 08:00:01;;;;;;;22.05;14.58;;;;;;;3.00;67.06;100441.75;1773930;78;21310;-65
2021/01/09 08:02:34;;;;;;;23.57;14.93;;;;;;;2.98;66.84;100439.22;1759701;77;21228;-63
2021/01/09 08:05:22;;;;;;;21.35;12.00;;;;;;;2.91;66.91;100436.53;1784184;78;21207;-63
2021/01/09 08:07:55;;;;;;;20.43;13.80;;;;;;;2.91;66.93;100441.27;1781188;78;21215;-65
2021/01/09 08:10:29;;;;;;;23.75;14.28;;;;;;;2.89;67.08;100442.23;1792248;78;21183;-63
2021/01/09 08:13:05;;;;;;;20.97;13.60;;;;;;;2.86;67.18;100445.84;1794562;78;21188;-64
2021/01/09 08:15:35;;;;;;;24.02;14.03;;;;;;;2.91;67.00;100453.43;1794969;78;21247;-64
2021/01/09 08:18:05;;;;;;;23.92;12.43;;;;;;;3.00;66.90;100450.84;1798419;77;21642;-64
2021/01/09 08:20:32;;;;;;;20.92;11.95;;;;;;;3.06;66.80;100443.59;1766506;78;21167;-62
2021/01/09 08:23:03;;;;;;;22.35;13.72;;;;;;;3.10;66.68;100442.98;1802569;78;21193;-64
2021/01/09 08:25:33;;;;;;;24.95;13.72;;;;;;;3.08;66.37;100443.06;1764455;80;21226;-64
2021/01/09 08:28:03;;;;;;;20.45;13.03;;;;;;;3.07;66.41;100445.73;1797444;77;21204;-63
2021/01/09 08:30:38;;;;;;;21.65;13.15;;;;;;;3.04;66.46;100445.41;1797541;77;21218;-60
2021/01/09 08:33:10;;;;;;;20.92;13.43;;;;;;;2.99;66.50;100444.78;1750587;80;21474;-59
2021/01/09 08:35:47;;;;;;;23.87;13.00;;;;;;;2.92;66.76;100445.53;1785521;78;21208;-59
2021/01/09 08:38:15;;;;;;;22.45;14.15;;;;;;;2.95;66.81;100448.45;1772581;78;22823;-60
2021/01/09 08:40:43;;;;;;;25.92;13.75;;;;;;;3.02;66.60;100439.45;1752422;77;21227;-58
2021/01/09 08:43:13;;;;;;;20.55;12.45;;;;;;;3.03;66.66;100439.84;1770035;79;21237;-59
2021/01/09 08:45:50;;;;;;;23.15;12.85;;;;;;;3.00;66.89;100439.98;1795870;78;21673;-59
2021/01/09 08:48:29;;;;;;;19.12;12.50;;;;;;;2.98;67.11;100430.13;1786872;78;21711;-60
2021/01/09 08:51:11;;;;;;;20.68;12.88;;;;;;;2.93;67.28;100425.60;1779958;79;21484;-59
2021/01/09 08:54:00;;;;;;;27.35;14.65;;;;;;;2.83;67.55;100432.98;1786844;78;21180;-59
2021/01/09 08:56:29;;;;;;;22.35;13.83;;;;;;;2.74;67.77;100432.10;1787659;78;21182;-59
2021/01/09 08:59:05;;;;;;;25.92;14.73;;;;;;;2.73;67.96;100434.33;1757943;79;21191;-59
2021/01/09 09:12:23;;;;;;;20.55;12.37;;;;;;;2.62;68.32;100415.80;1804225;76;23281;-60
2021/01/09 09:14:59;;;;;;;26.00;15.45;;;;;;;2.53;68.44;100420.50;1783082;78;21623;-59
2021/01/09 09:17:27;;;;;;;23.90;15.25;;;;;;;2.51;68.44;100421.50;1789926;78;21231;-61
2021/01/09 09:19:54;;;;;;;20.57;13.15;;;;;;;2.63;68.29;100418.33;1813058;78;21176;-60
2021/01/09 09:22:28;;;;;;;23.05;12.58;;;;;;;2.79;68.05;100421.03;1782529;80;21176;-60
2021/01/09 09:25:05;;;;;;;23.25;13.58;;;;;;;2.95;67.90;100413.37;1790623;79;22752;-60
2021/01/09 09:27:32;;;;;;;22.15;13.62;;;;;;;2.99;67.59;100417.48;1765956;80;21630;-60
2021/01/09 09:30:10;;;;;;;22.90;13.40;;;;;;;3.05;67.42;100422.88;1739374;80;21881;-60
2021/01/09 09:32:43;;;;;;;28.60;15.70;;;;;;;3.06;67.06;100419.34;1744518;80;21211;-60
2021/01/09 09:35:29;;;;;;;21.97;13.13;;;;;;;3.03;66.98;100418.21;1768244;80;21188;-60
2021/01/09 09:38:04;;;;;;;24.73;13.80;;;;;;;3.01;66.80;100410.48;1770530;80;21124;-60
2021/01/09 09:40:34;;;;;;;20.80;12.50;;;;;;;3.03;66.61;100407.34;1756956;80;21471;-63
2021/01/09 09:43:19;;;;;;;21.57;12.33;;;;;;;3.10;66.26;100401.39;1771097;80;21252;-61
2021/01/09 09:46:03;;;;;;;19.07;11.50;;;;;;;3.23;65.61;100398.58;1771327;78;21215;-61
2021/01/09 09:48:34;;;;;;;20.52;11.33;;;;;;;3.29;65.34;100393.05;1766496;78;21207;-62
2021/01/09 09:51:13;;;;;;;19.75;12.03;;;;;;;3.32;64.55;100392.91;1766975;80;21160;-60
2021/01/09 09:53:52;;;;;;;21.77;11.97;;;;;;;3.30;64.43;100393.45;1772232;80;21156;-62
2021/01/09 09:56:23;;;;;;;18.87;10.38;;;;;;;3.29;63.99;100387.85;1748128;80;22281;-61
2021/01/09 09:59:04;;;;;;;16.07;9.55;;;;;;;3.31;63.71;100389.08;1769340;80;21147;-64
2021/01/09 10:01:31;;;;;;;19.00;10.38;;;;;;;3.28;63.40;100397.06;1691352;82;21575;-61
2021/01/09 10:04:02;;;;;;;17.25;10.90;;;;;;;3.21;63.54;100391.31;1651887;84;21168;-63
2021/01/09 10:06:39;;;;;;;16.85;10.00;;;;;;;3.22;63.87;100393.45;1709285;80;21294;-62
2021/01/09 10:09:17;;;;;;;17.50;10.72;;;;;;;3.25;63.49;100392.83;1704454;83;22138;-60
2021/01/09 10:11:48;;;;;;;17.48;9.95;;;;;;;3.24;63.03;100394.20;1744105;81;21181;-67
2021/01/09 10:14:17;;;;;;;17.60;9.85;;;;;;;3.20;62.96;100389.63;1744372;81;21180;-62
2021/01/09 10:16:44;;;;;;;16.97;10.93;;;;;;;3.18;63.33;100386.27;1714877;81;21211;-61
2021/01/09 10:19:14;;;;;;;17.15;9.18;;;;;;;3.22;63.21;100381.28;1712422;83;21234;-60
2021/01/09 10:21:41;;;;;;;19.10;9.83;;;;;;;3.26;63.16;100383.27;1700853;83;21269;-61
2021/01/09 10:24:10;;;;;;;15.90;8.93;;;;;;;3.28;62.70;100384.05;1688163;83;21218;-60
2021/01/09 10:26:38;;;;;;;14.05;8.28;;;;;;;3.25;62.38;100392.83;1677423;84;21653;-62
2021/01/09 10:29:06;;;;;;;15.85;9.78;;;;;;;3.21;62.44;100383.52;1682343;84;21226;-61
2021/01/09 10:31:36;;;;;;;20.45;11.25;;;;;;;3.21;62.60;100383.52;1664396;84;21194;-62
2021/01/09 10:34:07;;;;;;;14.53;8.55;;;;;;;3.24;62.76;100386.41;1678857;84;22382;-60
2021/01/09 10:36:37;;;;;;;13.68;8.65;;;;;;;3.25;62.63;100382.44;1678765;85;21202;-60
2021/01/09 10:39:05;;;;;;;19.87;9.88;;;;;;;3.26;62.24;100391.06;1721375;82;21197;-60
2021/01/09 10:41:33;;;;;;;18.82;10.15;;;;;;;3.23;62.18;100387.31;1738309;81;21565;-60
2021/01/09 10:44:05;;;;;;;18.05;9.40;;;;;;;3.22;61.83;100396.05;1716260;81;21188;-60
2021/01/09 10:46:33;;;;;;;18.65;11.05;;;;;;;3.18;61.99;100388.00;1729629;81;21361;-60
2021/01/09 10:49:02;;;;;;;15.93;9.63;;;;;;;3.15;61.65;100386.41;1737802;81;21984;-61
2021/01/09 10:51:30;;;;;;;16.05;9.65;;;;;;;3.09;61.76;100389.30;1740712;81;21204;-60
2021/01/09 10:53:58;;;;;;;17.07;8.43;;;;;;;3.06;61.70;100390.30;1712161;81;21556;-60
2021/01/09 10:56:25;;;;;;;16.35;10.82;;;;;;;3.07;61.98;100384.64;1734846;81;21253;-62
2021/01/09 10:58:52;;;;;;;13.08;8.33;;;;;;;3.10;62.04;100377.99;1704317;81;21210;-59
2021/01/09 11:01:21;;;;;;;16.12;8.68;;;;;;;3.14;61.78;100375.17;1734615;81;21516;-60
2021/01/09 11:03:48;;;;;;;21.77;10.13;;;;;;;3.16;61.45;100375.94;1705892;81;21654;-59
2021/01/09 11:06:20;;;;;;;16.35;9.78;;;;;;;3.15;61.60;100376.84;1733759;81;21223;-61
2021/01/09 11:08:48;;;;;;;19.98;9.55;;;;;;;3.18;61.98;100373.27;1738109;81;21176;-60
2021/01/09 11:11:16;;;;;;;14.73;9.08;;;;;;;3.23;61.79;100376.47;1731024;81;21213;-60
2021/01/09 11:13:43;;;;;;;15.75;9.33;;;;;;;3.29;60.76;100369.64;1732830;79;21686;-62
2021/01/09 11:16:11;;;;;;;19.35;10.63;;;;;;;3.30;60.43;100380.91;1718223;81;21188;-61
2021/01/09 11:18:40;;;;;;;19.30;8.73;;;;;;;3.27;60.18;100376.69;1738556;81;21687;-60
2021/01/09 11:21:08;;;;;;;13.85;8.30;;;;;;;3.23;60.31;100375.17;1732710;81;21195;-60
2021/01/09 11:23:35;;;;;;;14.75;8.13;;;;;;;3.21;60.21;100383.95;1733922;80;21506;-65
2021/01/09 11:26:04;;;;;;;19.50;10.78;;;;;;;3.23;60.33;100382.11;1756323;80;21216;-62
2021/01/09 11:28:32;;;;;;;15.55;8.68;;;;;;;3.22;60.62;100377.38;1727852;81;21189;-62
2021/01/09 11:31:00;;;;;;;16.67;9.45;;;;;;;3.26;60.95;100381.53;1757775;80;21244;-62
2021/01/09 11:33:28;;;;;;;18.52;10.10;;;;;;;3.34;60.94;100380.66;1739567;80;21200;-63
2021/01/09 11:35:57;;;;;;;16.87;10.55;;;;;;;3.40;59.96;100376.93;1759051;80;22602;-64
2021/01/09 11:38:24;;;;;;;14.60;8.98;;;;;;;3.45;59.97;100378.00;1738665;80;21173;-63
2021/01/09 11:40:52;;;;;;;16.32;9.00;;;;;;;3.49;59.20;100373.02;1749445;80;21451;-61
2021/01/09 11:43:19;;;;;;;15.88;9.40;;;;;;;3.49;57.76;100364.74;1760346;80;21512;-61
2021/01/09 11:45:47;;;;;;;19.07;10.65;;;;;;;3.49;57.01;100373.02;1759624;79;21145;-61
2021/01/09 11:48:16;;;;;;;23.05;11.50;;;;;;;3.47;56.85;100374.39;1758594;80;21580;-65
2021/01/09 11:50:44;;;;;;;18.98;10.28;;;;;;;3.48;57.24;100375.22;1759889;80;21635;-63
2021/01/09 11:53:13;;;;;;;13.98;7.90;;;;;;;3.51;57.63;100370.73;1739236;80;21204;-63
2021/01/09 11:55:41;;;;;;;17.70;9.58;;;;;;;3.61;56.80;100378.05;1735507;80;21220;-62
2021/01/09 11:58:08;;;;;;;16.50;10.80;;;;;;;3.64;56.32;100382.64;1762361;80;21238;-60
2021/01/09 12:00:35;;;;;;;14.65;7.78;;;;;;;3.69;55.88;100378.03;1762108;79;21212;-61
2021/01/09 12:03:04;;;;;;;14.30;8.75;;;;;;;3.91;55.52;100388.64;1760499;80;21575;-61
2021/01/09 12:05:33;;;;;;;17.17;9.78;;;;;;;4.42;54.65;100384.63;1721353;82;21202;-61
2021/01/09 12:08:02;;;;;;;18.05;9.73;;;;;;;4.18;54.76;100388.11;1726079;81;21226;-60